To NAV CANADA Home Page Login to a new session Search on AWWS site Feedback and Comments Disclaimer Vers la page française équivalente Tips FAQ What's new on the site To the Forecasts and Observations / NOTAM section To "File a Flight Plan" website Publications and other links Update of the User's profile FIC Telephone Numbers My Weather Data Folder Route Weather Data Regional Weather Data Local Weather Data To the Forecasts and Observations / NOTAM section
Request Generated 04/24/2014 at 20:55:51 UTC . Weather information available at that time is displayed.

METAR/TAF

FREDERICTON/FREDERICTON INTL/NB    (show WxCam)

SPECI CYFC 242046Z AUTO 36010KT 2SM -SN SCT010 BKN015 OVC019 01/00
A2963 RMK VIS VRB 1 1/2-3 SLP035=
SPECI CYFC 242039Z AUTO 36010G15KT 1 3/4SM -SN SCT010 BKN017 OVC022
01/00 A2963 RMK VIS VRB 1 1/2-2 1/2 SLP034=
SPECI CYFC 242013Z AUTO 36011KT 2SM -SN SCT009 OVC015 01/00 A2961 RMK
SLP028=
SPECI CYFC 242004Z AUTO 36011G17KT 1 3/4SM -SN SCT009 OVC015 01/00
A2961 RMK SLP027=
METAR CYFC 242000Z AUTO 36009G18KT 2SM -SN SCT009 BKN015 OVC022 01/00
A2961 RMK VIS VRB 1 1/4-3 SLP026=
SPECI CYFC 241955Z AUTO 36014KT 2 1/4SM -SN SCT009 OVC015 01/00 A2960
RMK VIS VRB 1 1/4-3 SLP024=
SPECI CYFC 241946Z AUTO 36013G18KT 3SM -SN SCT009 OVC015 01/00 A2959
RMK SLP022=
SPECI CYFC 241942Z AUTO 36011G18KT 2 1/4SM -SN SCT009 OVC015 01/00
A2959 RMK VIS VRB 1 1/2-2 1/2 SLP022=
SPECI CYFC 241927Z AUTO 36013G18KT 1 3/4SM -SN SCT009 BKN013 OVC019
01/00 A2958 RMK SLP018=
SPECI CYFC 241923Z AUTO 36014KT 2 1/2SM -SN FEW009 BKN015 OVC022
02/01 A2958 RMK SLP017=
SPECI CYFC 241919Z AUTO 01013G19KT 5SM -SN BKN013 BKN018 OVC025 02/01
A2958 RMK SLP016=
SPECI CYFC 241916Z AUTO 36013G19KT 7SM -SN FEW009 BKN015 OVC022 02/01
A2957 RMK SLP015=
METAR CYFC 241900Z AUTO 01010G18KT 7SM -SN -UP BKN014 BKN020 OVC024
02/01 A2957 RMK MAX WND 01018KT AT 1848Z SLP013=
SPECI CYFC 241859Z AUTO 36011G18KT 6SM -SN -UP BKN014 BKN020 OVC024
02/01 A2957 RMK MAX WND 01018KT AT 1848Z SLP013=
SPECI CYFC 241856Z AUTO 01013G25KT 7SM -RASN -UP BKN016 OVC024 02/01
A2957 RMK MAX WND 01018KT AT 1848Z SLP013=
SPECI CYFC 241855Z AUTO 36013G25KT 7SM -RASN BKN014 BKN020 OVC024
02/01 A2956 RMK MAX WND 01018KT AT 1848Z SLP012=
SPECI CYFC 241847Z AUTO 01018G25KT 9SM -RA -UP BKN014 OVC022 02/01
A2956 RMK MAX WND 01018KT AT 1847Z SLP012=
SPECI CYFC 241844Z AUTO 01016KT 9SM -UP BKN014 BKN019 OVC024 02/01
A2956 RMK SLP011=
SPECI CYFC 241838Z AUTO 01014G20KT 6SM -SN -UP BKN014 OVC021 02/01
A2956 RMK SLP010=
SPECI CYFC 241831Z AUTO 01012G20KT 5SM -SN -UP BKN016 OVC021 02/01
A2956 RMK SLP010=
SPECI CYFC 241829Z AUTO 01013G21KT 6SM -UP BR BKN013 OVC021 02/01
A2956 RMK SLP009=
SPECI CYFC 241823Z AUTO 36013G21KT 9SM -RA -UP BKN012 OVC019 02/01
A2955 RMK SLP008=
SPECI CYFC 241816Z AUTO 36012G20KT 9SM -RA BKN012 OVC021 02/01 A2955
RMK SLP006=
SPECI CYFC 241805Z AUTO 36013KT 6SM -RA -UP BR BKN014 OVC020 02/01
A2954 RMK SLP004=
METAR CYFC 241800Z AUTO 36013G19KT 7SM -RA BKN012 OVC018 02/01 A2954
RMK PCPN 0.5MM PAST HR SLP004=

TAF AMD CYFC 241936Z 2419/2506 36012G22KT 6SM -RA BR OVC015 TEMPO
2419/2421 11/2SM -SN BR
FM242100 01012G22KT 11/2SM -SN OVC009 TEMPO 2421/2424 4SM -SN
OVC015
FM250000 01012G22KT 6SM -SN OVC025 TEMPO 2500/2503 3SM -SN
FM250300 35012KT P6SM BKN025 TEMPO 2503/2506 5SM -SN OVC020
RMK FCST BASED ON AUTO OBS. NXT FCST BY 250000Z=
Your time UTC time
Weather data provided by Environment Canada and NAV CANADA